• Join FlightAware (Why Join?)
  • Login
  • US Flag 
11:35PM EDT


 

Airport Tracker/Info


-or-


 

Live Flight TrackerFlight Track Log ✈ SWA554 ✈ 07-Apr-2013 ✈ KBWI - KMHT

Flight Track Log - Related Links

Times and Time Zones

All times are in EDT time to prevent confusion due to time zone crossing. See the SWA554 flight status page for this flight to view local times or setup timezone preferences in your user account.

Time Position Orientation Groundspeed Altitude Reporting Facility
EDT Latitude Longitude Course Direction KTS MPH feet Rate Location/Type
05:10PM 39.1031 -76.5839 90° East 192 221 4,000  Level Washington Center
05:11PM 39.1206 -76.4825 77° East 216 249 6,200 2,640 Climbing Washington Center
05:12PM 39.1339 -76.3675 81° East 269 310 9,300 2,520 Climbing Washington Center
05:13PM 39.1514 -76.2472 79° East 308 354 11,300 2,280 Climbing Washington Center
05:14PM 39.1644 -76.1189 82° East 367 422 13,900 2,520 Climbing Washington Center
05:15PM 39.1667 -76.6050 90° East  Level FlightAware Approximate
05:15PM 39.1817 -75.9797 81° East 386 444 16,300  Level Washington Center
05:16PM 39.1500 -76.4516 90° East  Level FlightAware Approximate
05:16PM 39.2172 -75.8461 71° East 396 456 18,700  Level Washington Center
05:17PM 39.2967 -75.7444 45° Northeast 379 436 20,900 1,980 Climbing Washington Center
05:18PM 39.3781 -75.6400 45° Northeast 393 452 22,700 1,680 Climbing Washington Center
05:19PM 39.4636 -75.5297 45° Northeast 414 476 24,300 1,560 Climbing Washington Center
05:20PM 39.5508 -75.4167 45° Northeast 427 491 25,900 1,500 Climbing Washington Center
05:21PM 39.6381 -75.3033 45° Northeast 432 497 27,300 1,140 Climbing Washington Center
05:22PM 39.7358 -75.1733 46° Northeast 437 503 28,200 1,200 Climbing Washington Center
05:23PM 39.8247 -75.0378 49° Northeast 461 531 29,800 1,500 Climbing Washington Center
05:25PM 39.9883 -74.8050 47° Northeast 463 533 32,700 1,320 Climbing New York Center
05:26PM 40.0781 -74.6772 47° Northeast 463 533 33,600 1,020 Climbing New York Center
05:27PM 40.1656 -74.5517 48° Northeast 469 540 34,800 660 Climbing New York Center
05:28PM 40.2503 -74.4450 44° Northeast 469 540 35,000 60 Climbing New York Center
05:29PM 40.3514 -74.3358 39° Northeast 469 540 35,000  Level New York Center
05:30PM 40.4525 -74.2294 39° Northeast 464 534 35,000  Level New York Center
05:31PM 40.5536 -74.1197 39° Northeast 464 534 35,000  Level New York Center
05:33PM 40.7464 -73.9167 39° Northeast 465 535 35,000  Level Boston Center
05:34PM 40.8558 -73.8258 32° Northeast 465 535 35,000  Level Boston Center
05:35PM 40.9733 -73.7625 22° Northeast 455 524 35,000  Level Boston Center
05:36PM 41.0908 -73.6958 23° Northeast 450 518 35,000  Level Boston Center
05:37PM 41.2061 -73.6264 24° Northeast 450 518 35,000  Level Boston Center
05:38PM 41.3275 -73.5844 15° North 456 525 35,000 -60 Level Boston Center
05:39PM 41.4442 -73.6031 353° North 424 488 34,900 -660 Descending Boston Center
05:40PM 41.5611 -73.5664 13° North 424 488 33,800 -1,020 Descending Boston Center
05:41PM 41.6783 -73.5214 16° North 424 488 32,900 -900 Descending Boston Center
05:42PM 41.7997 -73.4678 18° North 440 506 32,000 -900 Descending Boston Center
05:43PM 41.9231 -73.4139 18° North 452 520 31,100 -1,020 Descending Boston Center
05:44PM 42.0467 -73.3514 21° North 457 526 30,000 -1,080 Descending Boston Center
05:45PM 42.1414 -73.2269 44° Northeast 463 533 29,000 -1,200 Descending Boston Center
05:46PM 42.2275 -73.0989 48° Northeast 463 533 27,700 -1,920 Descending Boston Center
05:47PM 42.3200 -72.9681 46° Northeast 443 510 25,200 -2,160 Descending Boston Center
05:48PM 42.3975 -72.8617 45° Northeast 443 510 23,400 -1,860 Descending Boston Center
05:49PM 42.4772 -72.7442 47° Northeast 431 496 21,500 -2,040 Descending Boston Center
05:50PM 42.5525 -72.6317 48° Northeast 407 468 19,500 -2,040 Descending Boston Center
05:51PM 42.6089 -72.4994 60° Northeast 386 444 17,500 -2,100 Descending Boston Center
05:52PM 42.6589 -72.3667 63° Northeast 386 444 15,300 -2,040 Descending Boston Center
05:53PM 42.6983 -72.2536 65° Northeast 368 423 13,500 -1,980 Descending Boston Center
05:54PM 42.7500 -72.1178 63° Northeast 362 417 11,400 -1,740 Descending Boston Center
05:55PM 42.7894 -72.0128 63° Northeast 350 403 10,100 -1,680 Descending Boston Center
05:56PM 42.8472 -71.8936 56° Northeast 334 384 8,000 -1,740 Descending Boston Center
05:57PM 42.9089 -71.7656 57° Northeast 329 379 6,400 -1,260 Descending Boston Center
05:58PM 42.9503 -71.6914 53° Northeast 324 373 5,300 -840 Descending Boston Center
05:59PM 43.0122 -71.6081 45° Northeast 297 342 4,800 -840 Descending Boston Center
06:00PM 43.0447 -71.5139 65° Northeast 256 295 3,600 -1,200 Descending Boston Center
06:01PM 43.0153 -71.4831 143° Southeast 132 152 2,200 -1,260 Descending Boston Center
06:02PM 42.9714 -71.4583 158° South 131 151 900 -900 Descending Boston Center
06:03PM 42.9336 -71.4333 154° Southeast 139 160 400 8,940 Descending Boston Center
06:04PM 42.8958 -71.4142 160° South 139 160 19,000 9,180 Climbing Boston Center
06:06PM 42.8603 -71.3922 156° South 139 160 19,000  Level Boston Center
06:06PM 42.8225 -71.3728 159° South 139 160 19,000  Level Boston Center
06:07PM 42.8017 -71.3592 154° Southeast 139 160 19,000  Level Boston Center
06:09PM 42.9167 -71.4333 316° Northwest  Level FlightAware Approximate
06:16PM 42.9328 -71.4358 316° Northwest  Level Estimated
06:17PM 42.9328 -71.4358 316° Northwest  Level Estimated
06:18PM 42.9328 -71.4358 316° Northwest  Level Estimated
06:19PM 42.9328 -71.4358 316° Northwest  Level Estimated